createdAt,value
2023-04-23T00:01:18.027Z,14.40
2023-04-23T00:03:45.339Z,14.40
2023-04-23T00:06:13.837Z,14.40
2023-04-23T00:08:41.758Z,14.40
2023-04-23T00:11:09.466Z,14.40
2023-04-23T00:13:37.175Z,14.50
2023-04-23T00:16:05.098Z,14.50
2023-04-23T00:18:32.387Z,14.50
2023-04-23T00:21:01.175Z,14.50
2023-04-23T00:23:29.971Z,14.50
2023-04-23T00:25:57.092Z,14.50
2023-04-23T00:28:24.248Z,14.50
2023-04-23T00:30:51.945Z,14.50
2023-04-23T00:33:18.996Z,14.40
2023-04-23T00:35:46.405Z,14.40
2023-04-23T00:38:14.502Z,14.40
2023-04-23T00:40:41.735Z,14.40
2023-04-23T00:43:10.245Z,14.30
2023-04-23T00:45:37.423Z,14.30
2023-04-23T00:48:04.454Z,14.40
2023-04-23T00:50:31.542Z,14.40
2023-04-23T00:52:59.132Z,14.40
2023-04-23T00:55:26.353Z,14.40
2023-04-23T00:57:54.605Z,14.30
2023-04-23T01:00:22.149Z,14.30
2023-04-23T01:02:50.129Z,14.30
2023-04-23T01:05:19.389Z,14.40
2023-04-23T01:07:47.138Z,14.40
2023-04-23T01:10:14.695Z,14.30
2023-04-23T01:12:41.851Z,14.30
2023-04-23T01:15:09.578Z,14.20
2023-04-23T01:17:37.391Z,14.20
2023-04-23T01:20:06.810Z,14.20
2023-04-23T01:22:38.188Z,14.20
2023-04-23T01:25:06.639Z,14.10
2023-04-23T01:27:36.426Z,14.20
2023-04-23T01:30:05.143Z,14.10
2023-04-23T01:32:32.986Z,14.20
2023-04-23T01:35:00.336Z,14.10
2023-04-23T01:37:28.247Z,14.10
2023-04-23T01:39:55.475Z,14.10
2023-04-23T01:42:24.093Z,14.10
2023-04-23T01:44:51.508Z,14.10
2023-04-23T01:47:20.805Z,14.10
2023-04-23T01:49:48.254Z,14.10
2023-04-23T01:52:15.658Z,14.10
2023-04-23T01:54:42.924Z,14.10
2023-04-23T01:57:11.338Z,14.10
2023-04-23T01:59:40.328Z,14.10
2023-04-23T02:02:11.399Z,14.10
2023-04-23T02:04:39.464Z,14.10
2023-04-23T02:07:07.016Z,14.10
2023-04-23T02:09:34.521Z,14.20
2023-04-23T02:12:02.211Z,14.20
2023-04-23T02:14:30.057Z,14.20
2023-04-23T02:16:58.130Z,14.20
2023-04-23T02:19:25.409Z,14.20
2023-04-23T02:21:53.588Z,14.20
2023-04-23T02:24:20.997Z,14.20
2023-04-23T02:26:49.240Z,14.20
2023-04-23T02:29:16.301Z,14.20
2023-04-23T02:31:43.909Z,14.20
2023-04-23T02:34:11.279Z,14.20
2023-04-23T02:36:39.649Z,14.10
2023-04-23T02:39:08.270Z,14.10
2023-04-23T02:41:35.281Z,14.10
2023-04-23T02:44:03.302Z,14.00
2023-04-23T02:46:32.079Z,14.00
2023-04-23T02:49:01.151Z,13.90
2023-04-23T02:51:28.604Z,13.90
2023-04-23T02:53:55.896Z,13.90
2023-04-23T02:56:23.181Z,13.90
2023-04-23T02:58:50.060Z,13.90
2023-04-23T03:01:17.256Z,13.90
2023-04-23T03:03:45.380Z,13.90
2023-04-23T03:06:13.359Z,13.90
2023-04-23T03:08:43.579Z,14.00
2023-04-23T03:11:10.786Z,13.90
2023-04-23T03:13:37.846Z,14.00
2023-04-23T03:16:04.928Z,14.00
2023-04-23T03:18:32.049Z,13.90
2023-04-23T03:20:59.602Z,13.90
2023-04-23T03:23:26.704Z,13.90
2023-04-23T03:25:53.782Z,13.90
2023-04-23T03:28:20.823Z,13.90
2023-04-23T03:30:48.569Z,13.90
2023-04-23T03:33:15.551Z,13.90
2023-04-23T03:35:42.999Z,13.90
2023-04-23T03:38:12.921Z,13.90
2023-04-23T03:40:43.278Z,13.90
2023-04-23T03:43:12.778Z,13.90
2023-04-23T03:45:41.444Z,13.90
2023-04-23T03:48:08.583Z,13.90
2023-04-23T03:50:39.475Z,13.90
2023-04-23T03:53:11.099Z,13.90
2023-04-23T03:55:38.287Z,13.90
2023-04-23T03:58:05.833Z,13.90
2023-04-23T04:00:32.991Z,13.90
2023-04-23T04:03:01.401Z,14.00
2023-04-23T04:05:29.461Z,14.00
2023-04-23T04:07:56.898Z,14.00
2023-04-23T04:10:24.064Z,14.00
2023-04-23T04:12:51.526Z,14.00
2023-04-23T04:15:21.273Z,14.10
2023-04-23T04:17:48.672Z,14.10
2023-04-23T04:20:16.421Z,14.10
2023-04-23T04:22:43.970Z,14.20
2023-04-23T04:25:11.073Z,14.20
2023-04-23T04:27:39.551Z,14.20
2023-04-23T04:30:07.098Z,14.20
2023-04-23T04:32:34.817Z,14.20
2023-04-23T04:35:03.250Z,14.20
2023-04-23T04:37:30.315Z,14.20
2023-04-23T04:39:57.570Z,14.20
2023-04-23T04:42:25.969Z,14.10
2023-04-23T04:44:53.589Z,14.10
2023-04-23T04:47:20.832Z,14.10
2023-04-23T04:49:49.914Z,14.10
2023-04-23T04:52:17.795Z,14.20
2023-04-23T04:54:45.276Z,14.20
2023-04-23T04:57:14.059Z,14.20
2023-04-23T04:59:41.440Z,14.20
2023-04-23T05:02:09.922Z,14.30
2023-04-23T05:04:37.212Z,14.30
2023-04-23T05:07:04.497Z,14.30
2023-04-23T05:09:31.569Z,14.40
2023-04-23T05:12:00.614Z,14.40
2023-04-23T05:14:29.973Z,14.40
2023-04-23T05:16:57.183Z,14.40
2023-04-23T05:19:24.315Z,14.40
2023-04-23T05:21:51.531Z,14.40
2023-04-23T05:24:19.578Z,14.40
2023-04-23T05:26:47.370Z,14.40
2023-04-23T05:29:18.941Z,14.50
2023-04-23T05:31:47.535Z,14.50
2023-04-23T05:34:15.167Z,14.60
2023-04-23T05:36:42.394Z,14.60
2023-04-23T05:39:09.604Z,14.60
2023-04-23T05:41:37.609Z,14.70
2023-04-23T05:44:05.166Z,14.70
2023-04-23T05:46:35.867Z,14.80
2023-04-23T05:49:03.077Z,14.80
2023-04-23T05:51:30.332Z,14.90
2023-04-23T05:53:57.410Z,15.00
2023-04-23T05:56:27.490Z,15.00
2023-04-23T05:58:56.359Z,15.10
2023-04-23T06:01:24.174Z,15.10
2023-04-23T06:03:51.653Z,15.20
2023-04-23T06:06:19.119Z,15.20
2023-04-23T06:08:46.265Z,15.20
2023-04-23T06:11:13.455Z,15.30
2023-04-23T06:13:43.453Z,15.30
2023-04-23T06:16:11.152Z,15.30
2023-04-23T06:18:39.829Z,15.30
2023-04-23T06:21:07.567Z,15.30
2023-04-23T06:23:34.770Z,15.40
2023-04-23T06:26:02.311Z,15.40
2023-04-23T06:28:30.560Z,15.40
2023-04-23T06:30:57.700Z,15.40
2023-04-23T06:33:25.235Z,15.50
2023-04-23T06:35:52.525Z,15.50
2023-04-23T06:38:21.707Z,15.50
2023-04-23T06:40:49.061Z,15.50
2023-04-23T06:43:16.258Z,15.60
2023-04-23T06:45:43.813Z,15.60
2023-04-23T06:48:11.488Z,15.60
2023-04-23T06:50:39.176Z,15.70
2023-04-23T06:53:06.606Z,15.80
2023-04-23T06:55:33.686Z,15.80
2023-04-23T06:58:01.239Z,15.80
2023-04-23T07:00:28.328Z,15.90
2023-04-23T07:02:55.803Z,15.90
2023-04-23T07:05:24.594Z,15.90
2023-04-23T07:07:54.603Z,15.90
2023-04-23T07:10:21.907Z,15.90
2023-04-23T07:12:49.406Z,16.00
2023-04-23T07:15:16.780Z,16.00
2023-04-23T07:17:43.895Z,15.90
2023-04-23T07:20:11.632Z,16.00
2023-04-23T07:22:39.414Z,16.00
2023-04-23T07:25:09.802Z,16.00
2023-04-23T07:27:37.652Z,16.00
2023-04-23T07:30:05.436Z,16.10
2023-04-23T07:32:32.471Z,16.10
2023-04-23T07:35:00.237Z,16.10
2023-04-23T07:37:27.345Z,16.20
2023-04-23T07:39:54.415Z,16.20
2023-04-23T07:42:21.503Z,16.30
2023-04-23T07:44:48.694Z,16.30
2023-04-23T07:47:15.911Z,16.30
2023-04-23T07:49:44.011Z,16.40
2023-04-23T07:52:12.280Z,16.40
2023-04-23T07:54:39.560Z,16.50
2023-04-23T07:57:07.019Z,16.60
2023-04-23T07:59:34.528Z,16.60
2023-04-23T08:02:01.762Z,16.60
2023-04-23T08:04:29.157Z,16.70
2023-04-23T08:06:56.455Z,16.80
2023-04-23T08:09:23.977Z,16.80
2023-04-23T08:11:51.207Z,16.90
2023-04-23T08:14:18.921Z,16.90
2023-04-23T08:16:46.054Z,16.90
2023-04-23T08:19:13.058Z,16.90
2023-04-23T08:21:40.555Z,16.90
2023-04-23T08:24:08.712Z,16.90
2023-04-23T08:26:35.880Z,16.90
2023-04-23T08:29:03.948Z,17.00
2023-04-23T08:31:30.967Z,17.10
2023-04-23T08:33:58.273Z,17.20
2023-04-23T08:36:26.427Z,17.20
2023-04-23T08:38:53.563Z,17.40
2023-04-23T08:41:23.264Z,17.40
2023-04-23T08:44:02.288Z,17.50
2023-04-23T08:46:32.123Z,17.60
2023-04-23T08:49:04.031Z,17.80
2023-04-23T08:51:39.006Z,17.90
2023-04-23T08:54:07.790Z,18.10
2023-04-23T08:56:36.335Z,18.30
2023-04-23T08:59:04.211Z,18.40
2023-04-23T09:01:31.358Z,18.50
2023-04-23T09:03:59.401Z,18.60
2023-04-23T09:06:26.920Z,18.60
2023-04-23T09:08:54.775Z,18.70
2023-04-23T09:11:24.303Z,18.80
2023-04-23T09:13:51.420Z,18.80
2023-04-23T09:16:18.839Z,18.90
2023-04-23T09:18:46.934Z,19.00
2023-04-23T09:21:14.770Z,19.10
2023-04-23T09:23:42.504Z,19.20
2023-04-23T09:26:09.656Z,19.20
2023-04-23T09:28:37.844Z,19.30
2023-04-23T09:31:06.221Z,19.40
2023-04-23T09:33:36.521Z,19.50
2023-04-23T09:36:23.129Z,19.70
2023-04-23T09:38:51.254Z,19.80
2023-04-23T09:41:24.130Z,20.00
2023-04-23T09:43:53.464Z,20.20
2023-04-23T09:46:32.690Z,20.30
2023-04-23T09:49:01.510Z,20.50
2023-04-23T09:51:32.586Z,20.70
2023-04-23T09:54:02.162Z,20.90
2023-04-23T09:56:30.274Z,21.00
2023-04-23T09:58:57.795Z,21.10
2023-04-23T10:01:28.470Z,21.20
2023-04-23T10:03:57.327Z,21.20
2023-04-23T10:06:42.272Z,21.30
2023-04-23T10:09:16.893Z,21.40
2023-04-23T10:11:44.365Z,21.50
2023-04-23T10:14:11.903Z,21.70
2023-04-23T10:16:48.630Z,21.80
2023-04-23T10:19:18.628Z,21.90
2023-04-23T10:21:53.705Z,21.90
2023-04-23T10:24:25.624Z,22.00
2023-04-23T10:26:54.666Z,22.10
2023-04-23T10:29:23.991Z,22.30
2023-04-23T10:31:53.162Z,22.60
2023-04-23T10:34:21.297Z,22.70
2023-04-23T10:36:48.387Z,22.90
2023-04-23T10:39:24.097Z,23.00
2023-04-23T10:41:56.894Z,23.20
2023-04-23T10:44:44.938Z,23.30
2023-04-23T10:47:18.003Z,23.50
2023-04-23T10:49:45.206Z,23.60
2023-04-23T10:52:21.661Z,23.70
2023-04-23T10:54:51.149Z,23.80
2023-04-23T10:57:18.248Z,24.00
2023-04-23T10:59:52.831Z,24.10
2023-04-23T11:02:24.285Z,24.10
2023-04-23T11:04:58.948Z,24.10
2023-04-23T11:07:27.737Z,24.10
2023-04-23T11:09:56.766Z,24.10
2023-04-23T11:12:33.031Z,24.00
2023-04-23T11:15:00.653Z,23.90
2023-04-23T11:17:33.815Z,23.80
2023-04-23T11:20:14.257Z,23.60
2023-04-23T11:22:45.164Z,23.60
2023-04-23T11:25:13.941Z,23.70
2023-04-23T11:27:43.229Z,23.90
2023-04-23T11:30:14.922Z,24.10
2023-04-23T11:32:43.278Z,24.20
2023-04-23T11:35:20.405Z,24.20
2023-04-23T11:37:51.508Z,24.30
2023-04-23T11:40:20.519Z,24.40
2023-04-23T11:42:51.637Z,24.40
2023-04-23T11:45:19.733Z,24.40
2023-04-23T11:47:47.528Z,24.40
2023-04-23T11:50:21.959Z,24.30
2023-04-23T11:52:49.502Z,24.10
2023-04-23T11:55:17.635Z,23.90
2023-04-23T11:57:45.784Z,23.70
2023-04-23T12:00:17.924Z,23.60
2023-04-23T12:02:51.352Z,23.40
2023-04-23T12:05:29.902Z,23.10
2023-04-23T12:08:12.350Z,22.90
2023-04-23T12:10:47.138Z,22.80
2023-04-23T12:13:14.860Z,22.70
2023-04-23T12:15:46.307Z,22.70
2023-04-23T12:18:13.614Z,22.60
2023-04-23T12:20:40.857Z,22.60
2023-04-23T12:23:08.536Z,22.60
2023-04-23T12:25:36.348Z,22.50
2023-04-23T12:28:05.821Z,22.50
2023-04-23T12:30:33.995Z,22.40
2023-04-23T12:33:01.398Z,22.40
2023-04-23T12:35:38.400Z,22.40
2023-04-23T12:38:06.222Z,22.40
2023-04-23T12:40:33.870Z,22.40
2023-04-23T12:43:01.059Z,22.40
2023-04-23T12:45:36.847Z,22.40
2023-04-23T12:48:03.969Z,22.50
2023-04-23T12:50:34.154Z,22.60
2023-04-23T12:53:01.346Z,22.70
2023-04-23T12:55:28.388Z,22.70
2023-04-23T12:57:55.918Z,22.70
2023-04-23T13:00:23.525Z,22.70
2023-04-23T13:02:52.187Z,22.60
2023-04-23T13:05:19.411Z,22.60
2023-04-23T13:07:46.477Z,22.50
2023-04-23T13:10:13.558Z,22.40
2023-04-23T13:12:43.105Z,22.30
2023-04-23T13:15:13.092Z,22.20
2023-04-23T13:17:41.181Z,22.10
2023-04-23T13:20:11.667Z,22.00
2023-04-23T13:22:39.697Z,21.90
2023-04-23T13:25:07.163Z,21.90
2023-04-23T13:27:34.671Z,21.80
2023-04-23T13:30:02.370Z,21.90
2023-04-23T13:32:32.605Z,21.80
2023-04-23T13:35:05.386Z,21.80
2023-04-23T13:37:33.034Z,21.70
2023-04-23T13:40:00.175Z,21.70
2023-04-23T13:42:27.177Z,21.70
2023-04-23T13:44:54.363Z,21.70
2023-04-23T13:47:21.580Z,21.70
2023-04-23T13:49:48.830Z,21.70
2023-04-23T13:52:16.528Z,21.60
2023-04-23T13:54:43.719Z,21.50
2023-04-23T13:57:10.937Z,21.50
2023-04-23T13:59:38.175Z,21.40
2023-04-23T14:02:05.286Z,21.30
2023-04-23T14:04:32.892Z,21.30
2023-04-23T14:07:00.205Z,21.30
2023-04-23T14:09:27.287Z,21.20
2023-04-23T14:11:54.456Z,21.20
2023-04-23T14:14:21.502Z,21.10
2023-04-23T14:16:48.602Z,21.10
2023-04-23T14:19:15.778Z,21.10
2023-04-23T14:21:43.445Z,21.10
2023-04-23T14:24:29.476Z,21.00
2023-04-23T14:26:58.212Z,21.00
2023-04-23T14:29:30.055Z,20.90
2023-04-23T14:31:57.146Z,20.90
2023-04-23T14:34:24.708Z,20.90
2023-04-23T14:36:53.502Z,20.80
2023-04-23T14:39:22.481Z,20.80
2023-04-23T14:41:49.426Z,20.80
2023-04-23T14:44:16.503Z,20.80
2023-04-23T14:47:00.636Z,20.80
2023-04-23T14:49:28.682Z,20.80
2023-04-23T14:51:55.955Z,20.80
2023-04-23T14:54:23.092Z,20.70
2023-04-23T14:56:53.895Z,20.70
2023-04-23T14:59:22.702Z,20.70
2023-04-23T15:01:50.470Z,20.70
2023-04-23T15:04:18.169Z,20.70
2023-04-23T15:06:45.499Z,20.70
2023-04-23T15:09:12.673Z,20.80
2023-04-23T15:11:42.247Z,20.80
2023-04-23T15:14:18.972Z,20.80
2023-04-23T15:16:49.340Z,20.80
2023-04-23T15:19:20.891Z,20.90
2023-04-23T15:21:48.456Z,20.90
2023-04-23T15:24:18.198Z,20.90
2023-04-23T15:26:49.620Z,20.90
2023-04-23T15:29:17.173Z,20.90
2023-04-23T15:31:44.383Z,20.90
2023-04-23T15:34:12.584Z,20.90
2023-04-23T15:36:40.863Z,20.80
2023-04-23T15:39:09.886Z,20.80
2023-04-23T15:41:40.299Z,20.80
2023-04-23T15:44:12.509Z,20.70
2023-04-23T15:46:40.331Z,20.70
2023-04-23T15:49:07.543Z,20.70
2023-04-23T15:51:35.043Z,20.70
2023-04-23T15:54:02.980Z,20.80
2023-04-23T15:56:30.135Z,20.80
2023-04-23T15:58:57.520Z,20.80
2023-04-23T16:01:27.071Z,20.80
2023-04-23T16:04:09.528Z,20.70
2023-04-23T16:06:38.137Z,20.70
2023-04-23T16:09:08.893Z,20.60
2023-04-23T16:11:37.150Z,20.60
2023-04-23T16:14:05.677Z,20.50
2023-04-23T16:16:33.310Z,20.50
2023-04-23T16:19:00.454Z,20.50
2023-04-23T16:21:28.202Z,20.50
2023-04-23T16:23:55.428Z,20.40
2023-04-23T16:26:22.548Z,20.40
2023-04-23T16:28:52.329Z,20.30
2023-04-23T16:31:28.124Z,20.30
2023-04-23T16:33:55.928Z,20.20
2023-04-23T16:36:22.924Z,20.20
2023-04-23T16:38:50.553Z,20.20
2023-04-23T16:41:19.610Z,20.10
2023-04-23T16:43:49.404Z,20.10
2023-04-23T16:46:16.730Z,20.00
2023-04-23T16:48:44.715Z,19.90
2023-04-23T16:51:13.479Z,19.80
2023-04-23T16:53:41.539Z,19.80
2023-04-23T16:56:11.243Z,19.70
2023-04-23T16:58:38.699Z,19.60
2023-04-23T17:01:07.112Z,19.60
2023-04-23T17:03:34.285Z,19.50
2023-04-23T17:06:20.295Z,19.40
2023-04-23T17:08:47.583Z,19.40
2023-04-23T17:11:14.680Z,19.30
2023-04-23T17:13:44.012Z,19.10
2023-04-23T17:16:11.451Z,19.10
2023-04-23T17:18:38.798Z,19.00
2023-04-23T17:21:06.273Z,18.90
2023-04-23T17:23:33.896Z,18.80
2023-04-23T17:26:01.489Z,18.80
2023-04-23T17:28:28.687Z,18.70
2023-04-23T17:30:56.678Z,18.60
2023-04-23T17:33:24.013Z,18.60
2023-04-23T17:35:56.063Z,18.50
2023-04-23T17:38:25.229Z,18.40
2023-04-23T17:40:53.240Z,18.30
2023-04-23T17:43:21.434Z,18.20
2023-04-23T17:45:48.949Z,18.20
2023-04-23T17:48:16.331Z,18.10
2023-04-23T17:50:43.916Z,18.10
2023-04-23T17:53:11.674Z,18.10
2023-04-23T17:55:39.754Z,18.00
2023-04-23T17:58:07.440Z,18.00
2023-04-23T18:00:38.223Z,17.90
2023-04-23T18:03:07.915Z,17.90
2023-04-23T18:05:35.418Z,17.80
2023-04-23T18:08:02.744Z,17.70
2023-04-23T18:10:30.411Z,17.70
2023-04-23T18:12:57.716Z,17.70
2023-04-23T18:15:25.980Z,17.60
2023-04-23T18:17:56.178Z,17.50
2023-04-23T18:20:25.291Z,17.50
2023-04-23T18:22:57.557Z,17.50
2023-04-23T18:25:27.525Z,17.50
2023-04-23T18:27:54.921Z,17.40
2023-04-23T18:30:24.125Z,17.40
2023-04-23T18:32:57.705Z,17.40
2023-04-23T18:35:29.841Z,17.40
2023-04-23T18:38:04.827Z,17.40
2023-04-23T18:40:33.334Z,17.40
2023-04-23T18:43:00.243Z,17.40
2023-04-23T18:45:27.793Z,17.40
2023-04-23T18:48:12.842Z,17.30
2023-04-23T18:50:40.098Z,17.30
2023-04-23T18:53:08.251Z,17.30
2023-04-23T18:55:35.708Z,17.20
2023-04-23T18:58:03.954Z,17.20
2023-04-23T19:00:31.458Z,17.20
2023-04-23T19:03:02.790Z,17.20
2023-04-23T19:05:34.035Z,17.10
2023-04-23T19:08:04.501Z,17.10
2023-04-23T19:10:31.929Z,17.00
2023-04-23T19:12:59.496Z,16.90
2023-04-23T19:15:26.856Z,16.90
2023-04-23T19:17:54.219Z,16.90
2023-04-23T19:20:21.581Z,16.90
2023-04-23T19:22:49.123Z,16.90
2023-04-23T19:25:16.631Z,16.80
2023-04-23T19:27:43.833Z,16.80
2023-04-23T19:30:11.890Z,16.80
2023-04-23T19:32:39.200Z,16.80
2023-04-23T19:35:06.893Z,16.80
2023-04-23T19:37:34.416Z,16.70
2023-04-23T19:40:02.179Z,16.70
2023-04-23T19:42:30.380Z,16.70
2023-04-23T19:44:59.128Z,16.70
2023-04-23T19:47:26.638Z,16.70
2023-04-23T19:49:55.217Z,16.70
2023-04-23T19:52:24.525Z,16.70
2023-04-23T19:54:51.749Z,16.70
2023-04-23T19:57:20.212Z,16.70
2023-04-23T19:59:47.468Z,16.70
2023-04-23T20:02:16.001Z,16.60
2023-04-23T20:04:43.616Z,16.60
2023-04-23T20:07:14.091Z,16.60
2023-04-23T20:09:45.477Z,16.60
2023-04-23T20:12:14.616Z,16.50
2023-04-23T20:14:43.174Z,16.50
2023-04-23T20:17:13.677Z,16.50
2023-04-23T20:19:44.377Z,16.50
2023-04-23T20:22:11.603Z,16.50
2023-04-23T20:24:41.225Z,16.40
2023-04-23T20:27:08.516Z,16.40
2023-04-23T20:29:36.003Z,16.40
2023-04-23T20:32:03.231Z,16.40
2023-04-23T20:34:30.573Z,16.40
2023-04-23T20:37:06.407Z,16.40
2023-04-23T20:39:36.751Z,16.40
2023-04-23T20:42:05.782Z,16.40
2023-04-23T20:44:32.836Z,16.40
2023-04-23T20:47:04.465Z,16.40
2023-04-23T20:49:32.462Z,16.40
2023-04-23T20:52:00.015Z,16.30
2023-04-23T20:54:27.312Z,16.30
2023-04-23T20:56:54.508Z,16.30
2023-04-23T20:59:22.058Z,16.20
2023-04-23T21:01:51.662Z,16.20
2023-04-23T21:04:18.847Z,16.10
2023-04-23T21:06:47.651Z,16.00
2023-04-23T21:09:14.717Z,16.00
2023-04-23T21:11:41.947Z,15.90
2023-04-23T21:14:09.225Z,15.90
2023-04-23T21:16:41.697Z,15.90
2023-04-23T21:19:08.836Z,15.90
2023-04-23T21:21:36.122Z,15.90
2023-04-23T21:24:03.272Z,15.80
2023-04-23T21:26:31.058Z,15.80
2023-04-23T21:29:01.803Z,15.80
2023-04-23T21:31:43.252Z,15.80
2023-04-23T21:34:10.360Z,15.80
2023-04-23T21:36:37.444Z,15.70
2023-04-23T21:39:05.193Z,15.70
2023-04-23T21:41:32.752Z,15.70
2023-04-23T21:43:59.873Z,15.70
2023-04-23T21:46:27.234Z,15.80
2023-04-23T21:48:54.704Z,15.80
2023-04-23T21:51:22.904Z,15.80
2023-04-23T21:53:51.336Z,15.80
2023-04-23T21:56:18.606Z,15.80
2023-04-23T21:58:46.381Z,15.90
2023-04-23T22:01:13.856Z,15.90
2023-04-23T22:03:43.622Z,15.90
2023-04-23T22:06:13.909Z,15.90
2023-04-23T22:08:46.954Z,15.80
2023-04-23T22:11:15.206Z,15.80
2023-04-23T22:13:43.033Z,15.80
2023-04-23T22:16:20.776Z,15.80
2023-04-23T22:18:54.455Z,15.80
2023-04-23T22:21:21.716Z,15.80
2023-04-23T22:23:48.822Z,15.70
2023-04-23T22:26:16.077Z,15.70
2023-04-23T22:28:44.045Z,15.70
2023-04-23T22:31:14.305Z,15.70
2023-04-23T22:33:41.459Z,15.70
2023-04-23T22:36:08.705Z,15.70
2023-04-23T22:38:35.817Z,15.70
2023-04-23T22:41:03.082Z,15.60
2023-04-23T22:43:30.246Z,15.60
2023-04-23T22:45:57.751Z,15.50
2023-04-23T22:48:24.776Z,15.50
2023-04-23T22:50:52.296Z,15.50
2023-04-23T22:53:19.767Z,15.40
2023-04-23T22:55:47.276Z,15.40
2023-04-23T22:58:14.538Z,15.30
2023-04-23T23:00:41.720Z,15.30
2023-04-23T23:03:08.843Z,15.20
2023-04-23T23:05:36.892Z,15.20
2023-04-23T23:08:04.598Z,15.20
2023-04-23T23:10:31.855Z,15.10
2023-04-23T23:12:58.911Z,15.10
2023-04-23T23:15:26.262Z,15.10
2023-04-23T23:17:54.343Z,15.00
2023-04-23T23:20:21.766Z,15.10
2023-04-23T23:22:48.961Z,15.10
2023-04-23T23:25:16.449Z,15.10
2023-04-23T23:27:43.768Z,15.10
2023-04-23T23:30:13.778Z,15.10
2023-04-23T23:32:41.622Z,15.00
2023-04-23T23:35:11.368Z,15.00
2023-04-23T23:37:38.387Z,15.00
2023-04-23T23:40:06.798Z,15.00
2023-04-23T23:42:33.785Z,15.00
2023-04-23T23:45:00.989Z,15.00
2023-04-23T23:47:28.394Z,15.00
2023-04-23T23:49:55.351Z,15.10
2023-04-23T23:52:22.591Z,15.10
2023-04-23T23:54:49.805Z,15.10
2023-04-23T23:57:16.906Z,15.20
2023-04-23T23:59:44.416Z,15.20
